Time;durP1;ratioP1;P1;durP2;ratioP2;P2;SDS_P1;SDS_P2;PMS_P1;PMS_P2;Temp;Humidity;BMP_temperature;BMP_pressure;BME280_temperature;BME280_humidity;BME280_pressure;Samples;Min_cycle;Max_cycle;Signal;HPM_P1;HPM_P2
2021/05/27 00:01:19;;;;;;;18.45;16.65;;;;;;;19.80;76.92;94281.20;834313;71;32786;-77
2021/05/27 00:16:08;;;;;;;17.80;16.05;;;;;;;19.74;76.73;94280.51;828222;71;29800;-78
2021/05/27 00:31:12;;;;;;;18.70;16.90;;;;;;;19.58;76.61;94273.32;828145;71;32488;-76
2021/05/27 00:46:09;;;;;;;17.45;15.80;;;;;;;19.28;77.18;94286.42;828167;71;30286;-76
2021/05/27 01:01:09;;;;;;;18.52;16.73;;;;;;;19.43;77.00;94281.39;828214;71;30333;-75
2021/05/27 01:16:20;;;;;;;18.95;16.82;;;;;;;19.32;77.56;94275.83;834079;71;29697;-74
2021/05/27 01:31:18;;;;;;;19.85;17.95;;;;;;;19.42;76.97;94242.02;827502;71;33230;-76
2021/05/27 01:46:14;;;;;;;19.95;18.07;;;;;;;19.01;77.50;94240.98;827574;71;32697;-76
2021/05/27 02:01:15;;;;;;;18.75;16.95;;;;;;;19.12;77.48;94237.78;827269;71;33191;-75
2021/05/27 02:16:14;;;;;;;20.30;18.20;;;;;;;19.28;76.93;94250.50;834050;71;32668;-77
2021/05/27 02:31:17;;;;;;;19.62;17.73;;;;;;;19.25;77.15;94250.42;827597;71;33258;-77
2021/05/27 02:46:08;;;;;;;20.32;18.37;;;;;;;19.30;76.86;94254.13;828360;71;29708;-77
2021/05/27 03:16:08;;;;;;;19.92;17.82;;;;;;;19.74;77.37;94249.32;828383;71;29717;-78
2021/05/27 03:31:14;;;;;;;18.55;16.85;;;;;;;21.12;71.83;94263.20;827485;71;32805;-77
2021/05/27 03:46:08;;;;;;;19.87;17.77;;;;;;;19.99;74.02;94268.98;828454;71;29667;-80
2021/05/27 04:01:08;;;;;;;20.52;18.40;;;;;;;19.76;77.59;94257.73;833959;71;30594;-77
2021/05/27 04:16:09;;;;;;;14.50;13.10;;;;;;;19.25;74.76;94268.48;828113;71;30279;-75
2021/05/27 04:31:11;;;;;;;13.85;12.55;;;;;;;19.85;74.02;94278.04;834310;71;29668;-77
2021/05/27 04:46:27;;;;;;;15.35;13.90;;;;;;;19.54;73.70;94281.80;834796;71;32932;-77
2021/05/27 05:01:08;;;;;;;18.05;15.93;;;;;;;20.14;72.90;94290.01;829115;71;29697;-77
2021/05/27 05:16:08;;;;;;;19.15;17.17;;;;;;;20.15;73.64;94279.01;833980;71;30133;-76
2021/05/27 05:31:09;;;;;;;21.25;19.02;;;;;;;20.73;71.87;94277.31;833934;71;30799;-75
2021/05/27 06:01:39;;;;;;;24.93;21.13;;;;;;;21.93;65.01;94289.22;833879;71;32782;-82
2021/05/27 06:16:28;;;;;;;22.60;19.40;;;;;;;21.28;63.90;94279.05;835444;71;32811;-84
2021/05/27 06:31:09;;;;;;;21.53;19.33;;;;;;;21.14;64.78;94270.28;828992;71;30289;-81
2021/05/27 06:46:19;;;;;;;21.97;18.80;;;;;;;21.71;62.59;94262.25;827540;71;31119;-81
2021/05/27 07:01:09;;;;;;;23.97;20.80;;;;;;;21.68;62.23;94248.30;833888;71;30279;-80
2021/05/27 07:16:14;;;;;;;20.43;18.10;;;;;;;22.07;61.08;94254.63;828818;71;32752;-78
2021/05/27 07:31:09;;;;;;;19.50;17.53;;;;;;;22.57;59.75;94253.02;828028;71;30561;-81
2021/05/27 07:46:15;;;;;;;17.10;14.47;;;;;;;22.74;57.93;94237.65;827228;71;32742;-81
2021/05/27 08:01:15;;;;;;;18.23;13.13;;;;;;;22.93;56.18;94230.50;828674;71;32484;-80
2021/05/27 08:16:15;;;;;;;14.70;12.37;;;;;;;23.67;54.31;94224.01;827480;71;33386;-79
2021/05/27 08:31:19;;;;;;;11.77;10.77;;;;;;;23.85;53.44;94208.02;834127;71;32698;-78
2021/05/27 08:46:11;;;;;;;13.07;10.03;;;;;;;24.04;50.72;94196.75;828070;71;31965;-79
2021/05/27 09:16:13;;;;;;;13.43;10.87;;;;;;;24.51;51.71;94168.05;834229;71;32523;-86
2021/05/27 09:31:15;;;;;;;12.20;11.20;;;;;;;24.73;52.28;94144.64;834624;71;30754;-79
2021/05/27 09:46:08;;;;;;;12.77;11.67;;;;;;;24.22;54.06;94142.56;834070;71;30255;-77
2021/05/27 10:01:13;;;;;;;12.27;11.07;;;;;;;23.63;56.02;94136.74;828172;71;32652;-76
2021/05/27 10:16:17;;;;;;;12.20;11.00;;;;;;;24.07;55.82;94128.95;834355;71;32813;-76
2021/05/27 10:31:16;;;;;;;9.40;8.40;;;;;;;25.45;48.30;94110.27;827244;71;32703;-77
2021/05/27 10:46:18;;;;;;;9.07;8.27;;;;;;;;;;827431;71;33156;-76
2021/05/27 11:01:14;;;;;;;10.70;9.70;;;;;;;;;;834284;71;32836;-74
2021/05/27 11:16:15;;;;;;;11.17;10.13;;;;;;;24.69;51.77;94075.45;828057;71;34047;-76
2021/05/27 11:31:14;;;;;;;11.03;9.93;;;;;;;24.26;52.87;94070.16;827349;71;32704;-75
2021/05/27 11:46:17;;;;;;;10.90;9.87;;;;;;;24.05;53.21;94074.95;833968;71;32481;-74
2021/05/27 12:01:19;;;;;;;10.50;9.33;;;;;;;23.88;54.68;94063.86;834018;71;32857;-77
2021/05/27 12:16:08;;;;;;;10.37;9.20;;;;;;;23.48;53.34;94111.27;827909;71;30259;-77
2021/05/27 12:31:10;;;;;;;10.50;9.60;;;;;;;21.85;60.54;94085.34;827859;71;30334;-75
2021/05/27 12:46:17;;;;;;;10.77;9.77;;;;;;;21.36;59.53;94060.47;827112;71;32810;-77
2021/05/27 13:01:19;;;;;;;10.07;9.17;;;;;;;21.15;60.31;94021.00;833869;71;33246;-77
2021/05/27 13:16:38;;;;;;;13.40;11.30;;;;;;;20.91;62.64;94027.62;824127;71;32809;-76
2021/05/27 13:31:21;;;;;;;12.90;11.68;;;;;;;20.21;63.55;94016.48;827609;71;32728;-75
2021/05/27 13:46:10;;;;;;;11.93;10.82;;;;;;;19.85;62.65;94053.03;827895;71;30259;-75
2021/05/27 14:01:11;;;;;;;10.63;9.63;;;;;;;19.55;60.05;94080.31;827746;71;30798;-76
2021/05/27 14:16:08;;;;;;;11.57;10.40;;;;;;;19.36;61.44;94140.97;819200;71;29691;-75
2021/05/27 14:31:18;;;;;;;10.45;9.53;;;;;;;19.31;64.32;94204.56;828373;71;32750;-75
2021/05/27 14:46:15;;;;;;;12.07;10.88;;;;;;;19.28;68.24;94245.72;827026;71;32732;-77
2021/05/27 15:01:59;;;;;;;14.20;12.75;;;;;;;19.55;75.62;94228.03;828534;71;32789;-76
2021/05/27 15:16:16;;;;;;;13.90;12.43;;;;;;;19.46;79.09;94160.92;828295;71;32709;-76
2021/05/27 15:31:14;;;;;;;19.00;14.78;;;;;;;18.38;78.47;94118.28;827330;71;33110;-76
2021/05/27 15:46:11;;;;;;;14.20;12.75;;;;;;;17.95;79.99;94104.05;829755;71;29928;-74
2021/05/27 16:01:17;;;;;;;9.83;8.83;;;;;;;17.80;75.41;94087.53;828395;71;32693;-78
2021/05/27 16:16:20;;;;;;;7.60;6.90;;;;;;;17.69;72.51;94076.67;828100;71;32763;-80
2021/05/27 16:31:10;;;;;;;7.62;6.95;;;;;;;17.57;72.43;94076.19;834197;71;30312;-77
2021/05/27 16:46:16;;;;;;;8.15;7.42;;;;;;;17.56;70.24;94036.76;833872;71;33247;-78
2021/05/27 17:01:09;;;;;;;9.98;9.05;;;;;;;17.53;72.23;94023.59;821824;71;30782;-78
2021/05/27 17:16:09;;;;;;;7.55;6.87;;;;;;;17.66;71.48;94033.58;826137;70;29848;-74
2021/05/27 17:31:10;;;;;;;11.48;10.38;;;;;;;17.75;73.57;94014.82;828238;71;30254;-77
2021/05/27 17:46:16;;;;;;;11.88;10.72;;;;;;;17.36;76.21;94029.27;827875;71;33160;-76
2021/05/27 18:01:09;;;;;;;11.30;10.18;;;;;;;17.48;75.75;94048.28;794513;74;29880;-79
2021/05/27 18:16:13;;;;;;;9.30;8.33;;;;;;;17.56;75.10;94046.80;834044;71;32010;-79
2021/05/27 18:31:15;;;;;;;10.68;9.58;;;;;;;17.56;75.35;94050.78;794100;74;33310;-77
2021/05/27 18:46:26;;;;;;;11.55;10.45;;;;;;;17.70;75.87;94106.08;801631;74;32972;-79
2021/05/27 19:01:21;;;;;;;10.82;9.63;;;;;;;17.84;75.77;94145.48;822643;71;32847;-77
2021/05/27 19:16:11;;;;;;;10.93;9.90;;;;;;;17.91;76.24;94180.73;822573;71;30389;-78
2021/05/27 19:31:17;;;;;;;11.75;9.60;;;;;;;17.96;75.99;94207.80;821497;71;32915;-81
2021/05/27 19:46:14;;;;;;;10.23;8.78;;;;;;;17.99;75.59;94216.97;826159;70;32731;-78
2021/05/27 20:01:17;;;;;;;9.53;8.55;;;;;;;17.99;77.33;94205.02;828278;71;32877;-78
2021/05/27 20:16:23;;;;;;;8.90;8.10;;;;;;;17.79;82.52;94186.29;828508;71;32704;-79
2021/05/27 20:31:15;;;;;;;10.45;8.03;;;;;;;18.12;80.74;94173.84;828149;71;32759;-78
2021/05/27 20:46:13;;;;;;;8.98;8.13;;;;;;;18.65;78.45;94176.17;829375;71;29720;-77
2021/05/27 21:16:10;;;;;;;8.55;7.75;;;;;;;18.83;76.86;94177.36;829210;71;30320;-77
2021/05/27 21:31:10;;;;;;;10.23;9.23;;;;;;;19.10;76.10;94198.26;829452;71;30332;-77
2021/05/27 21:46:16;;;;;;;10.60;9.10;;;;;;;19.13;75.49;94200.20;828719;71;32786;-78
2021/05/27 22:01:18;;;;;;;10.32;9.33;;;;;;;19.17;74.66;94190.97;828245;71;32788;-78
2021/05/27 22:16:15;;;;;;;11.70;10.60;;;;;;;19.11;73.72;94174.52;827947;71;32774;-75
2021/05/27 22:31:18;;;;;;;12.65;11.22;;;;;;;19.10;73.56;94164.22;828016;71;32710;-78
2021/05/27 22:46:11;;;;;;;11.05;9.85;;;;;;;18.92;73.86;94173.95;829213;71;32002;-76
2021/05/27 23:01:09;;;;;;;10.48;9.48;;;;;;;18.86;73.21;94167.94;829623;71;30285;-77
2021/05/27 23:16:15;;;;;;;10.35;9.30;;;;;;;18.94;73.53;94200.20;828694;71;32812;-79
2021/05/27 23:31:15;;;;;;;10.35;9.45;;;;;;;19.11;72.50;94209.09;835338;71;32693;-75
2021/05/27 23:46:08;;;;;;;9.65;8.75;;;;;;;19.11;72.12;94195.80;829555;71;29756;-78
